If you wish to contribute or participate in the discussions about articles you are invited to join SKYbrary as a registered user

 Actions

Antananarivo/Ivato International Airport

From SKYbrary Wiki

FMMI
Airport
ICAO: FMMI – IATA: TNR
Summary
Name Antananarivo/Ivato International Airport
Region Africa
Territory Madagascar MG.gif
Location Antananarivo
Serving Antananarivo
Elevation 1,279.55 m
4,198 ft
4,198 ft1,279.55 m
Coordinates -18° 47' 47.0004", 47° 28' 33.9996"
Runways
Designator Length Width Surface ROPS
11/29 3100 m10,170.604 ft 45 m147.638 ft ASP yes/yes
METAR
Observation FMMI 120230Z VRB03KT 9999 FEW017 BKN020 19/18 Q1020 NOSIG
Station Antananarivo / Ivato
Date/Time 12 December 2017 02:30:00
Wind direction °
Wind speed 03 kts
Lowest cloud amount few clouds
Temperature 19°C
Dew point 18°C
Humidity 93%
QNH 1020 hPa
Weather condition n/a

Antananarivo/Ivato International Airport

ICAO: FMMI IATA: TNR

Description

International airport 16 km8.639 nm
16,000 m
52,493.438 ft
north of Antananarivo, the capital city of Madagascar.

Climatology

Antananarivo has a sub-tropical highland climate (Köppen climate classification Cwb) characterised by mild, dry winters and warm, rainy summers.

Maps

Terrain

Loading map...

Airport Layout

Loading map...


Accidents & Serious Incidents at or in vicinity of FMMI

None on SKYbrary